sensor_id;sensor_type;location;lat;lon;timestamp;pressure;altitude;pressure_sealevel;temperature;humidity
41078;BME280;26823;42.662;23.352;2023-03-20T00:01:33;95111.41;;;4.31;75.83
41078;BME280;26823;42.662;23.352;2023-03-20T00:03:59;95099.44;;;4.22;76.25
41078;BME280;26823;42.662;23.352;2023-03-20T00:06:26;95108.75;;;4.19;75.76
41078;BME280;26823;42.662;23.352;2023-03-20T00:08:56;95103.38;;;4.31;75.03
41078;BME280;26823;42.662;23.352;2023-03-20T00:14:05;95108.38;;;4.16;75.71
41078;BME280;26823;42.662;23.352;2023-03-20T00:16:42;95094.47;;;3.95;76.33
41078;BME280;26823;42.662;23.352;2023-03-20T00:19:15;95105.59;;;4.11;75.99
41078;BME280;26823;42.662;23.352;2023-03-20T00:21:42;95099.50;;;4.15;75.55
41078;BME280;26823;42.662;23.352;2023-03-20T00:24:07;95096.47;;;4.12;76.13
41078;BME280;26823;42.662;23.352;2023-03-20T00:26:35;95081.81;;;3.90;76.20
41078;BME280;26823;42.662;23.352;2023-03-20T00:29:01;95089.84;;;3.90;76.46
41078;BME280;26823;42.662;23.352;2023-03-20T00:31:30;95093.00;;;4.11;76.40
41078;BME280;26823;42.662;23.352;2023-03-20T00:33:58;95097.06;;;4.14;76.58
41078;BME280;26823;42.662;23.352;2023-03-20T00:36:25;95088.94;;;4.08;76.00
41078;BME280;26823;42.662;23.352;2023-03-20T00:38:51;95076.31;;;3.85;77.01
41078;BME280;26823;42.662;23.352;2023-03-20T00:43:58;95071.50;;;3.64;77.54
41078;BME280;26823;42.662;23.352;2023-03-20T00:46:24;95081.47;;;3.56;78.15
41078;BME280;26823;42.662;23.352;2023-03-20T00:48:50;95092.91;;;3.64;78.15
41078;BME280;26823;42.662;23.352;2023-03-20T00:51:17;95066.84;;;3.59;77.55
41078;BME280;26823;42.662;23.352;2023-03-20T00:53:42;95079.03;;;3.55;77.42
41078;BME280;26823;42.662;23.352;2023-03-20T00:56:34;95076.31;;;3.43;78.35
41078;BME280;26823;42.662;23.352;2023-03-20T00:59:02;95069.13;;;3.43;78.06
41078;BME280;26823;42.662;23.352;2023-03-20T01:01:35;95066.44;;;3.43;78.69
41078;BME280;26823;42.662;23.352;2023-03-20T01:04:01;95071.00;;;3.55;78.33
41078;BME280;26823;42.662;23.352;2023-03-20T01:06:26;95063.53;;;3.45;78.21
41078;BME280;26823;42.662;23.352;2023-03-20T01:08:53;95046.25;;;3.29;78.70
41078;BME280;26823;42.662;23.352;2023-03-20T01:11:22;95020.44;;;3.23;79.04
41078;BME280;26823;42.662;23.352;2023-03-20T01:13:48;95058.84;;;3.40;79.46
41078;BME280;26823;42.662;23.352;2023-03-20T01:16:20;95054.59;;;3.51;78.83
41078;BME280;26823;42.662;23.352;2023-03-20T01:18:46;95053.16;;;3.37;79.06
41078;BME280;26823;42.662;23.352;2023-03-20T01:21:12;95045.25;;;3.42;79.30
41078;BME280;26823;42.662;23.352;2023-03-20T01:23:38;95039.91;;;3.42;79.63
41078;BME280;26823;42.662;23.352;2023-03-20T01:26:10;95047.22;;;3.35;79.13
41078;BME280;26823;42.662;23.352;2023-03-20T01:28:42;95044.19;;;3.31;79.30
41078;BME280;26823;42.662;23.352;2023-03-20T01:31:08;95061.41;;;3.35;78.97
41078;BME280;26823;42.662;23.352;2023-03-20T01:33:33;95053.78;;;3.20;79.65
41078;BME280;26823;42.662;23.352;2023-03-20T01:35:59;95066.44;;;3.13;80.64
41078;BME280;26823;42.662;23.352;2023-03-20T01:38:25;95049.06;;;3.04;81.12
41078;BME280;26823;42.662;23.352;2023-03-20T01:41:15;95049.63;;;3.24;80.09
41078;BME280;26823;42.662;23.352;2023-03-20T01:43:54;95060.63;;;3.16;80.52
41078;BME280;26823;42.662;23.352;2023-03-20T01:46:29;95062.16;;;3.24;80.23
41078;BME280;26823;42.662;23.352;2023-03-20T01:51:30;95060.50;;;3.11;80.26
41078;BME280;26823;42.662;23.352;2023-03-20T01:56:35;95068.31;;;2.94;81.68
41078;BME280;26823;42.662;23.352;2023-03-20T01:59:08;95059.69;;;2.92;81.02
41078;BME280;26823;42.662;23.352;2023-03-20T02:01:35;95073.53;;;2.89;80.88
41078;BME280;26823;42.662;23.352;2023-03-20T02:04:01;95058.66;;;2.74;81.14
41078;BME280;26823;42.662;23.352;2023-03-20T02:06:28;95055.84;;;2.69;81.99
41078;BME280;26823;42.662;23.352;2023-03-20T02:08:53;95063.59;;;2.77;82.03
41078;BME280;26823;42.662;23.352;2023-03-20T02:11:21;95060.97;;;2.89;81.37
41078;BME280;26823;42.662;23.352;2023-03-20T02:13:53;95040.19;;;2.91;80.80
41078;BME280;26823;42.662;23.352;2023-03-20T02:16:19;95021.28;;;2.74;80.63
41078;BME280;26823;42.662;23.352;2023-03-20T02:18:47;95051.78;;;2.85;81.18
41078;BME280;26823;42.662;23.352;2023-03-20T02:21:29;95053.84;;;2.83;81.52
41078;BME280;26823;42.662;23.352;2023-03-20T02:43:11;95068.19;;;2.70;81.91
41078;BME280;26823;42.662;23.352;2023-03-20T02:48:15;95055.63;;;2.71;82.32
41078;BME280;26823;42.662;23.352;2023-03-20T02:56:40;95048.44;;;2.53;82.54
41078;BME280;26823;42.662;23.352;2023-03-20T03:01:35;95051.47;;;2.56;82.45
41078;BME280;26823;42.662;23.352;2023-03-20T03:04:15;95036.88;;;2.59;82.17
41078;BME280;26823;42.662;23.352;2023-03-20T03:06:43;95008.50;;;2.39;82.63
41078;BME280;26823;42.662;23.352;2023-03-20T03:09:15;95050.22;;;2.77;83.55
41078;BME280;26823;42.662;23.352;2023-03-20T03:11:48;95052.16;;;2.70;82.50
41078;BME280;26823;42.662;23.352;2023-03-20T03:14:31;95053.63;;;2.48;83.46
41078;BME280;26823;42.662;23.352;2023-03-20T03:17:01;95045.03;;;2.64;83.46
41078;BME280;26823;42.662;23.352;2023-03-20T03:19:29;95041.91;;;2.67;82.71
41078;BME280;26823;42.662;23.352;2023-03-20T03:21:56;95044.03;;;2.77;82.63
41078;BME280;26823;42.662;23.352;2023-03-20T03:24:29;95041.47;;;2.89;81.80
41078;BME280;26823;42.662;23.352;2023-03-20T03:26:57;95049.19;;;2.60;81.86
41078;BME280;26823;42.662;23.352;2023-03-20T03:29:27;95052.50;;;2.55;81.91
41078;BME280;26823;42.662;23.352;2023-03-20T03:31:55;95052.28;;;2.38;83.51
41078;BME280;26823;42.662;23.352;2023-03-20T03:34:22;95041.69;;;2.50;83.37
41078;BME280;26823;42.662;23.352;2023-03-20T03:37:03;95035.22;;;2.58;82.40
41078;BME280;26823;42.662;23.352;2023-03-20T03:45:03;95035.22;;;2.21;83.64
41078;BME280;26823;42.662;23.352;2023-03-20T03:47:55;95039.56;;;2.15;84.41
41078;BME280;26823;42.662;23.352;2023-03-20T03:50:29;95047.00;;;2.32;83.85
41078;BME280;26823;42.662;23.352;2023-03-20T03:53:03;95049.03;;;2.36;84.34
41078;BME280;26823;42.662;23.352;2023-03-20T03:55:35;95051.41;;;2.44;83.69
41078;BME280;26823;42.662;23.352;2023-03-20T03:58:39;95044.28;;;2.38;83.62
41078;BME280;26823;42.662;23.352;2023-03-20T04:00:58;95047.22;;;2.30;83.75
41078;BME280;26823;42.662;23.352;2023-03-20T04:03:30;95045.41;;;2.31;84.28
41078;BME280;26823;42.662;23.352;2023-03-20T04:05:57;95028.63;;;2.23;84.06
41078;BME280;26823;42.662;23.352;2023-03-20T04:08:24;95037.28;;;2.19;84.20
41078;BME280;26823;42.662;23.352;2023-03-20T04:10:50;95025.69;;;2.06;84.85
41078;BME280;26823;42.662;23.352;2023-03-20T04:13:15;95030.44;;;2.04;85.56
41078;BME280;26823;42.662;23.352;2023-03-20T04:15:41;95026.75;;;2.05;85.48
41078;BME280;26823;42.662;23.352;2023-03-20T04:18:14;95021.56;;;2.10;84.69
41078;BME280;26823;42.662;23.352;2023-03-20T04:20:41;95026.81;;;2.17;84.66
41078;BME280;26823;42.662;23.352;2023-03-20T04:23:06;95022.75;;;2.15;84.81
41078;BME280;26823;42.662;23.352;2023-03-20T04:25:32;95027.22;;;2.21;84.79
41078;BME280;26823;42.662;23.352;2023-03-20T04:27:57;95011.16;;;2.02;85.27
41078;BME280;26823;42.662;23.352;2023-03-20T04:30:23;95031.44;;;2.28;84.41
41078;BME280;26823;42.662;23.352;2023-03-20T04:32:48;95023.59;;;2.34;84.10
41078;BME280;26823;42.662;23.352;2023-03-20T04:35:13;95031.47;;;2.47;82.92
41078;BME280;26823;42.662;23.352;2023-03-20T04:37:39;95027.16;;;2.46;83.77
41078;BME280;26823;42.662;23.352;2023-03-20T04:40:05;95025.50;;;2.45;83.35
41078;BME280;26823;42.662;23.352;2023-03-20T04:42:30;95028.56;;;2.49;83.54
41078;BME280;26823;42.662;23.352;2023-03-20T04:44:56;95035.97;;;2.47;82.74
41078;BME280;26823;42.662;23.352;2023-03-20T04:47:21;95025.00;;;2.55;83.02
41078;BME280;26823;42.662;23.352;2023-03-20T04:49:46;95038.03;;;2.63;81.65
41078;BME280;26823;42.662;23.352;2023-03-20T04:52:12;95040.41;;;2.53;82.51
41078;BME280;26823;42.662;23.352;2023-03-20T04:54:37;95054.06;;;2.63;82.14
41078;BME280;26823;42.662;23.352;2023-03-20T04:57:03;95051.69;;;2.73;81.92
41078;BME280;26823;42.662;23.352;2023-03-20T04:59:28;95067.81;;;2.85;81.46
41078;BME280;26823;42.662;23.352;2023-03-20T05:01:53;95064.00;;;2.93;81.73
41078;BME280;26823;42.662;23.352;2023-03-20T05:04:19;95075.06;;;2.97;80.86
41078;BME280;26823;42.662;23.352;2023-03-20T05:06:45;95070.44;;;3.04;80.43
41078;BME280;26823;42.662;23.352;2023-03-20T05:09:13;95065.03;;;2.92;81.75
41078;BME280;26823;42.662;23.352;2023-03-20T05:11:39;95067.34;;;3.07;80.28
41078;BME280;26823;42.662;23.352;2023-03-20T05:14:05;95065.69;;;3.24;79.53
41078;BME280;26823;42.662;23.352;2023-03-20T05:16:31;95072.50;;;3.20;80.15
41078;BME280;26823;42.662;23.352;2023-03-20T05:18:56;95066.34;;;3.20;80.40
41078;BME280;26823;42.662;23.352;2023-03-20T05:21:21;95063.84;;;3.37;80.30
41078;BME280;26823;42.662;23.352;2023-03-20T05:23:47;95070.09;;;3.61;78.24
41078;BME280;26823;42.662;23.352;2023-03-20T05:26:12;95078.47;;;3.65;78.19
41078;BME280;26823;42.662;23.352;2023-03-20T05:28:38;95077.47;;;3.78;78.16
41078;BME280;26823;42.662;23.352;2023-03-20T05:31:03;95076.09;;;3.87;78.15
41078;BME280;26823;42.662;23.352;2023-03-20T05:33:29;95077.25;;;3.91;78.05
41078;BME280;26823;42.662;23.352;2023-03-20T05:35:55;95078.44;;;4.07;78.12
41078;BME280;26823;42.662;23.352;2023-03-20T05:38:20;95073.94;;;4.19;77.35
41078;BME280;26823;42.662;23.352;2023-03-20T05:40:49;95077.88;;;4.40;76.33
41078;BME280;26823;42.662;23.352;2023-03-20T05:43:19;95085.09;;;4.76;74.63
41078;BME280;26823;42.662;23.352;2023-03-20T05:45:59;95082.53;;;4.57;73.64
41078;BME280;26823;42.662;23.352;2023-03-20T05:48:25;95086.19;;;5.03;70.96
41078;BME280;26823;42.662;23.352;2023-03-20T05:50:50;95095.81;;;5.57;68.69
41078;BME280;26823;42.662;23.352;2023-03-20T05:53:16;95056.50;;;5.80;66.29
41078;BME280;26823;42.662;23.352;2023-03-20T05:55:41;95108.66;;;6.30;64.47
41078;BME280;26823;42.662;23.352;2023-03-20T05:58:09;95103.84;;;6.32;64.46
41078;BME280;26823;42.662;23.352;2023-03-20T06:00:35;95098.88;;;6.41;65.40
41078;BME280;26823;42.662;23.352;2023-03-20T06:03:00;95092.78;;;6.28;63.98
41078;BME280;26823;42.662;23.352;2023-03-20T06:05:25;95103.22;;;5.96;65.52
41078;BME280;26823;42.662;23.352;2023-03-20T06:07:51;95085.44;;;6.41;65.39
41078;BME280;26823;42.662;23.352;2023-03-20T06:10:16;95045.88;;;6.36;63.15
41078;BME280;26823;42.662;23.352;2023-03-20T06:12:44;95091.97;;;6.84;62.99
41078;BME280;26823;42.662;23.352;2023-03-20T06:15:10;95063.84;;;6.92;61.72
41078;BME280;26823;42.662;23.352;2023-03-20T06:17:35;95087.31;;;7.18;61.02
41078;BME280;26823;42.662;23.352;2023-03-20T06:20:01;95086.91;;;6.88;61.95
41078;BME280;26823;42.662;23.352;2023-03-20T06:22:26;95057.91;;;7.34;59.93
41078;BME280;26823;42.662;23.352;2023-03-20T06:24:51;95094.25;;;7.86;58.49
41078;BME280;26823;42.662;23.352;2023-03-20T06:27:17;95090.38;;;8.69;55.82
41078;BME280;26823;42.662;23.352;2023-03-20T06:29:42;95099.31;;;9.28;54.28
41078;BME280;26823;42.662;23.352;2023-03-20T06:32:08;95100.41;;;8.79;54.78
41078;BME280;26823;42.662;23.352;2023-03-20T06:34:34;95104.56;;;9.50;52.55
41078;BME280;26823;42.662;23.352;2023-03-20T06:37:00;95095.94;;;9.58;51.48
41078;BME280;26823;42.662;23.352;2023-03-20T06:39:26;95090.66;;;9.26;51.72
41078;BME280;26823;42.662;23.352;2023-03-20T06:41:52;95103.09;;;9.27;52.44
41078;BME280;26823;42.662;23.352;2023-03-20T06:44:18;95094.63;;;9.08;53.20
41078;BME280;26823;42.662;23.352;2023-03-20T06:46:43;95102.81;;;10.07;51.03
41078;BME280;26823;42.662;23.352;2023-03-20T06:49:09;95107.94;;;10.09;50.71
41078;BME280;26823;42.662;23.352;2023-03-20T06:51:34;95107.34;;;9.81;51.32
41078;BME280;26823;42.662;23.352;2023-03-20T06:53:59;95099.31;;;10.22;50.00
41078;BME280;26823;42.662;23.352;2023-03-20T06:56:25;95076.06;;;10.78;48.76
41078;BME280;26823;42.662;23.352;2023-03-20T06:58:50;95091.69;;;11.07;47.97
41078;BME280;26823;42.662;23.352;2023-03-20T07:01:16;95081.28;;;11.95;46.15
41078;BME280;26823;42.662;23.352;2023-03-20T07:03:44;95075.44;;;12.86;43.36
41078;BME280;26823;42.662;23.352;2023-03-20T07:06:09;95084.75;;;13.04;42.47
41078;BME280;26823;42.662;23.352;2023-03-20T07:08:36;95087.22;;;13.54;41.80
41078;BME280;26823;42.662;23.352;2023-03-20T07:11:02;95072.75;;;13.83;40.56
41078;BME280;26823;42.662;23.352;2023-03-20T07:13:29;95080.13;;;13.59;40.79
41078;BME280;26823;42.662;23.352;2023-03-20T07:15:54;95084.78;;;13.96;39.96
41078;BME280;26823;42.662;23.352;2023-03-20T07:18:23;95084.13;;;14.24;39.80
41078;BME280;26823;42.662;23.352;2023-03-20T07:20:51;95086.19;;;14.13;39.86
41078;BME280;26823;42.662;23.352;2023-03-20T07:23:17;95081.56;;;13.51;41.01
41078;BME280;26823;42.662;23.352;2023-03-20T07:25:42;95075.84;;;13.52;40.40
41078;BME280;26823;42.662;23.352;2023-03-20T07:28:09;95068.31;;;14.26;39.23
41078;BME280;26823;42.662;23.352;2023-03-20T07:30:34;95061.25;;;14.25;38.90
41078;BME280;26823;42.662;23.352;2023-03-20T07:33:00;95065.34;;;14.41;38.39
41078;BME280;26823;42.662;23.352;2023-03-20T07:35:25;95075.63;;;13.92;40.07
41078;BME280;26823;42.662;23.352;2023-03-20T07:37:50;95063.66;;;14.45;39.57
41078;BME280;26823;42.662;23.352;2023-03-20T07:40:16;95080.19;;;15.01;38.23
41078;BME280;26823;42.662;23.352;2023-03-20T07:42:43;95082.56;;;14.56;39.18
41078;BME280;26823;42.662;23.352;2023-03-20T07:45:09;95080.94;;;14.55;38.42
41078;BME280;26823;42.662;23.352;2023-03-20T07:47:35;95078.78;;;15.04;37.67
41078;BME280;26823;42.662;23.352;2023-03-20T07:50:00;95082.16;;;14.62;38.31
41078;BME280;26823;42.662;23.352;2023-03-20T07:52:26;95075.00;;;14.14;39.40
41078;BME280;26823;42.662;23.352;2023-03-20T07:54:51;95058.84;;;14.56;38.80
41078;BME280;26823;42.662;23.352;2023-03-20T07:57:17;95074.03;;;15.09;38.16
41078;BME280;26823;42.662;23.352;2023-03-20T07:59:43;95082.94;;;15.85;36.39
41078;BME280;26823;42.662;23.352;2023-03-20T08:02:15;95084.25;;;15.45;37.05
41078;BME280;26823;42.662;23.352;2023-03-20T08:04:42;95078.88;;;15.82;37.20
41078;BME280;26823;42.662;23.352;2023-03-20T08:07:08;95081.75;;;16.13;35.76
41078;BME280;26823;42.662;23.352;2023-03-20T08:09:33;95076.59;;;16.12;36.14
41078;BME280;26823;42.662;23.352;2023-03-20T08:11:59;95076.34;;;15.44;36.60
41078;BME280;26823;42.662;23.352;2023-03-20T08:14:24;95072.44;;;15.36;37.23
41078;BME280;26823;42.662;23.352;2023-03-20T08:16:50;95078.44;;;16.17;36.06
41078;BME280;26823;42.662;23.352;2023-03-20T08:19:15;95079.94;;;17.22;34.42
41078;BME280;26823;42.662;23.352;2023-03-20T08:21:41;95076.66;;;16.80;34.94
41078;BME280;26823;42.662;23.352;2023-03-20T08:24:06;95068.63;;;17.06;34.12
41078;BME280;26823;42.662;23.352;2023-03-20T08:26:33;95087.50;;;18.23;32.50
41078;BME280;26823;42.662;23.352;2023-03-20T08:28:58;95079.28;;;18.06;32.39
41078;BME280;26823;42.662;23.352;2023-03-20T08:31:24;95086.66;;;16.85;34.36
41078;BME280;26823;42.662;23.352;2023-03-20T08:33:50;95085.41;;;16.45;34.99
41078;BME280;26823;42.662;23.352;2023-03-20T08:36:16;95090.09;;;17.22;34.26
41078;BME280;26823;42.662;23.352;2023-03-20T08:38:44;95086.06;;;17.59;33.08
41078;BME280;26823;42.662;23.352;2023-03-20T08:41:10;95077.06;;;16.96;34.64
41078;BME280;26823;42.662;23.352;2023-03-20T08:43:36;95082.88;;;17.66;33.19
41078;BME280;26823;42.662;23.352;2023-03-20T08:46:02;95084.38;;;17.41;33.70
41078;BME280;26823;42.662;23.352;2023-03-20T08:48:27;95065.94;;;15.04;36.64
41078;BME280;26823;42.662;23.352;2023-03-20T08:50:53;95069.13;;;16.63;35.11
41078;BME280;26823;42.662;23.352;2023-03-20T08:53:18;95055.53;;;17.26;34.76
41078;BME280;26823;42.662;23.352;2023-03-20T08:55:51;95073.28;;;17.06;33.92
41078;BME280;26823;42.662;23.352;2023-03-20T08:58:18;95075.09;;;17.10;34.01
41078;BME280;26823;42.662;23.352;2023-03-20T09:00:43;95069.34;;;17.61;32.81
41078;BME280;26823;42.662;23.352;2023-03-20T09:03:14;95073.00;;;18.40;31.19
41078;BME280;26823;42.662;23.352;2023-03-20T09:05:42;95068.97;;;18.82;30.50
41078;BME280;26823;42.662;23.352;2023-03-20T09:08:08;95067.53;;;19.40;29.76
41078;BME280;26823;42.662;23.352;2023-03-20T09:10:33;95067.53;;;18.93;30.39
41078;BME280;26823;42.662;23.352;2023-03-20T09:12:59;95058.47;;;19.49;29.74
41078;BME280;26823;42.662;23.352;2023-03-20T09:15:26;95059.09;;;20.14;29.09
41078;BME280;26823;42.662;23.352;2023-03-20T09:17:51;95054.75;;;18.97;29.96
41078;BME280;26823;42.662;23.352;2023-03-20T09:20:17;95053.94;;;19.14;30.38
41078;BME280;26823;42.662;23.352;2023-03-20T09:22:42;95037.84;;;19.43;30.43
41078;BME280;26823;42.662;23.352;2023-03-20T09:25:09;95041.78;;;18.33;31.77
41078;BME280;26823;42.662;23.352;2023-03-20T09:27:35;95048.44;;;17.65;32.44
41078;BME280;26823;42.662;23.352;2023-03-20T09:30:00;95027.09;;;18.64;31.76
41078;BME280;26823;42.662;23.352;2023-03-20T09:32:26;95041.31;;;18.31;31.15
41078;BME280;26823;42.662;23.352;2023-03-20T09:34:51;95038.47;;;17.69;32.61
41078;BME280;26823;42.662;23.352;2023-03-20T09:37:17;95025.38;;;18.06;32.24
41078;BME280;26823;42.662;23.352;2023-03-20T09:39:42;95025.03;;;17.41;33.56
41078;BME280;26823;42.662;23.352;2023-03-20T09:48:04;95027.63;;;18.39;31.42
41078;BME280;26823;42.662;23.352;2023-03-20T09:51:14;95005.63;;;17.69;32.09
41078;BME280;26823;42.662;23.352;2023-03-20T09:53:36;95001.63;;;17.09;33.23
41078;BME280;26823;42.662;23.352;2023-03-20T09:56:04;94984.59;;;17.12;33.29
41078;BME280;26823;42.662;23.352;2023-03-20T09:58:36;94971.31;;;17.28;32.93
41078;BME280;26823;42.662;23.352;2023-03-20T10:01:04;94988.63;;;17.90;32.31
41078;BME280;26823;42.662;23.352;2023-03-20T10:03:50;94987.97;;;19.11;30.67
41078;BME280;26823;42.662;23.352;2023-03-20T10:06:17;94979.59;;;19.46;30.51
41078;BME280;26823;42.662;23.352;2023-03-20T10:08:44;94966.13;;;19.32;30.97
41078;BME280;26823;42.662;23.352;2023-03-20T10:19:35;94960.59;;;18.46;31.94
41078;BME280;26823;42.662;23.352;2023-03-20T10:21:43;94939.97;;;19.04;31.04
41078;BME280;26823;42.662;23.352;2023-03-20T10:24:20;94950.06;;;19.43;30.39
41078;BME280;26823;42.662;23.352;2023-03-20T10:26:50;94958.09;;;20.20;29.14
41078;BME280;26823;42.662;23.352;2023-03-20T10:29:32;94940.34;;;20.84;28.75
41078;BME280;26823;42.662;23.352;2023-03-20T10:32:36;94949.78;;;20.08;29.85
41078;BME280;26823;42.662;23.352;2023-03-20T10:43:02;94937.94;;;20.83;28.21
41078;BME280;26823;42.662;23.352;2023-03-20T10:45:30;94932.81;;;20.14;29.08
41078;BME280;26823;42.662;23.352;2023-03-20T10:48:00;94916.88;;;18.58;30.97
41078;BME280;26823;42.662;23.352;2023-03-20T10:50:40;94920.50;;;18.41;31.74
41078;BME280;26823;42.662;23.352;2023-03-20T10:53:07;94912.88;;;19.84;29.21
41078;BME280;26823;42.662;23.352;2023-03-20T10:55:39;94900.19;;;20.46;28.70
41078;BME280;26823;42.662;23.352;2023-03-20T10:58:24;94915.13;;;21.81;28.23
41078;BME280;26823;42.662;23.352;2023-03-20T11:00:53;94893.75;;;22.19;27.85
41078;BME280;26823;42.662;23.352;2023-03-20T11:03:22;94902.31;;;22.02;26.44
41078;BME280;26823;42.662;23.352;2023-03-20T11:05:52;94897.50;;;20.83;27.96
41078;BME280;26823;42.662;23.352;2023-03-20T11:08:23;94898.88;;;20.31;28.40
41078;BME280;26823;42.662;23.352;2023-03-20T11:10:58;94892.28;;;21.81;28.15
41078;BME280;26823;42.662;23.352;2023-03-20T11:13:29;94884.88;;;22.86;26.46
41078;BME280;26823;42.662;23.352;2023-03-20T11:15:55;94886.75;;;23.46;26.19
41078;BME280;26823;42.662;23.352;2023-03-20T11:18:24;94882.38;;;23.65;24.43
41078;BME280;26823;42.662;23.352;2023-03-20T11:20:53;94881.59;;;23.12;23.62
41078;BME280;26823;42.662;23.352;2023-03-20T11:23:23;94872.28;;;22.25;25.11
41078;BME280;26823;42.662;23.352;2023-03-20T11:26:02;94861.94;;;21.53;26.17
41078;BME280;26823;42.662;23.352;2023-03-20T11:28:39;94857.75;;;22.12;25.21
41078;BME280;26823;42.662;23.352;2023-03-20T11:31:06;94858.50;;;22.85;24.99
41078;BME280;26823;42.662;23.352;2023-03-20T11:33:45;94853.03;;;22.12;25.38
41078;BME280;26823;42.662;23.352;2023-03-20T11:36:22;94855.00;;;22.88;25.14
41078;BME280;26823;42.662;23.352;2023-03-20T11:38:49;94847.59;;;23.60;23.58
41078;BME280;26823;42.662;23.352;2023-03-20T11:41:18;94828.56;;;21.95;24.97
41078;BME280;26823;42.662;23.352;2023-03-20T11:43:44;94828.53;;;21.26;25.60
41078;BME280;26823;42.662;23.352;2023-03-20T11:46:11;94824.69;;;20.90;26.72
41078;BME280;26823;42.662;23.352;2023-03-20T11:48:43;94815.53;;;20.15;26.46
41078;BME280;26823;42.662;23.352;2023-03-20T11:51:16;94812.41;;;19.70;26.91
41078;BME280;26823;42.662;23.352;2023-03-20T11:56:20;94819.31;;;22.15;26.83
41078;BME280;26823;42.662;23.352;2023-03-20T11:58:58;94803.44;;;21.15;24.25
41078;BME280;26823;42.662;23.352;2023-03-20T12:01:25;94806.22;;;21.02;24.61
41078;BME280;26823;42.662;23.352;2023-03-20T12:06:25;94797.53;;;21.82;25.42
41078;BME280;26823;42.662;23.352;2023-03-20T12:14:17;94788.44;;;22.70;23.36
41078;BME280;26823;42.662;23.352;2023-03-20T12:16:48;94777.06;;;23.23;24.38
41078;BME280;26823;42.662;23.352;2023-03-20T12:19:19;94773.72;;;24.12;22.05
41078;BME280;26823;42.662;23.352;2023-03-20T12:22:14;94769.94;;;24.47;22.31
41078;BME280;26823;42.662;23.352;2023-03-20T12:24:48;94773.09;;;24.22;20.93
41078;BME280;26823;42.662;23.352;2023-03-20T12:33:02;94769.34;;;21.44;22.93
41078;BME280;26823;42.662;23.352;2023-03-20T12:37:51;94751.53;;;22.59;23.07
41078;BME280;26823;42.662;23.352;2023-03-20T12:40:17;94753.84;;;23.08;22.14
41078;BME280;26823;42.662;23.352;2023-03-20T12:43:03;94728.63;;;23.45;22.51
41078;BME280;26823;42.662;23.352;2023-03-20T12:45:37;94753.25;;;23.54;22.13
41078;BME280;26823;42.662;23.352;2023-03-20T12:51:06;94739.25;;;23.43;20.63
41078;BME280;26823;42.662;23.352;2023-03-20T13:01:54;94735.75;;;21.51;20.66
41078;BME280;26823;42.662;23.352;2023-03-20T13:04:48;94722.84;;;22.44;23.93
41078;BME280;26823;42.662;23.352;2023-03-20T13:07:19;94721.94;;;22.91;20.34
41078;BME280;26823;42.662;23.352;2023-03-20T13:10:18;94716.31;;;22.36;20.43
41078;BME280;26823;42.662;23.352;2023-03-20T13:13:50;94721.66;;;21.97;22.05
41078;BME280;26823;42.662;23.352;2023-03-20T13:16:14;94693.03;;;21.41;22.42
41078;BME280;26823;42.662;23.352;2023-03-20T13:18:47;94711.16;;;22.03;20.21
41078;BME280;26823;42.662;23.352;2023-03-20T13:21:26;94704.41;;;22.16;20.30
41078;BME280;26823;42.662;23.352;2023-03-20T13:27:44;94695.84;;;20.88;20.51
41078;BME280;26823;42.662;23.352;2023-03-20T13:30:26;94685.78;;;20.67;20.67
41078;BME280;26823;42.662;23.352;2023-03-20T13:38:22;94675.22;;;20.94;21.33
41078;BME280;26823;42.662;23.352;2023-03-20T13:40:59;94667.75;;;20.95;21.31
41078;BME280;26823;42.662;23.352;2023-03-20T13:46:04;94675.09;;;20.91;20.81
41078;BME280;26823;42.662;23.352;2023-03-20T13:48:41;94665.16;;;21.43;20.47
41078;BME280;26823;42.662;23.352;2023-03-20T13:53:57;94666.69;;;21.12;20.46
41078;BME280;26823;42.662;23.352;2023-03-20T14:02:09;94659.34;;;20.75;21.01
41078;BME280;26823;42.662;23.352;2023-03-20T14:04:37;94651.16;;;20.91;20.91
41078;BME280;26823;42.662;23.352;2023-03-20T14:07:31;94649.91;;;20.89;20.54
41078;BME280;26823;42.662;23.352;2023-03-20T14:12:55;94646.75;;;21.59;22.95
41078;BME280;26823;42.662;23.352;2023-03-20T14:15:25;94638.63;;;21.79;20.48
41078;BME280;26823;42.662;23.352;2023-03-20T14:17:52;94626.69;;;21.75;20.30
41078;BME280;26823;42.662;23.352;2023-03-20T14:20:38;94638.22;;;21.64;21.11
41078;BME280;26823;42.662;23.352;2023-03-20T14:23:05;94637.00;;;21.62;23.99
41078;BME280;26823;42.662;23.352;2023-03-20T14:25:36;94640.13;;;21.76;22.00
41078;BME280;26823;42.662;23.352;2023-03-20T14:30:44;94630.44;;;21.98;21.47
41078;BME280;26823;42.662;23.352;2023-03-20T14:35:50;94625.47;;;21.88;22.06
41078;BME280;26823;42.662;23.352;2023-03-20T14:38:24;94612.78;;;21.67;20.73
41078;BME280;26823;42.662;23.352;2023-03-20T14:46:42;94617.56;;;21.71;20.98
41078;BME280;26823;42.662;23.352;2023-03-20T14:58:39;94616.16;;;21.32;20.03
41078;BME280;26823;42.662;23.352;2023-03-20T15:01:14;94620.38;;;21.14;21.01
41078;BME280;26823;42.662;23.352;2023-03-20T15:03:41;94614.34;;;21.24;21.68
41078;BME280;26823;42.662;23.352;2023-03-20T15:06:08;94589.94;;;21.07;20.61
41078;BME280;26823;42.662;23.352;2023-03-20T15:08:41;94612.88;;;20.98;20.41
41078;BME280;26823;42.662;23.352;2023-03-20T15:11:10;94620.75;;;20.84;20.43
41078;BME280;26823;42.662;23.352;2023-03-20T15:13:38;94604.81;;;20.77;20.74
41078;BME280;26823;42.662;23.352;2023-03-20T15:16:08;94617.53;;;20.69;20.52
41078;BME280;26823;42.662;23.352;2023-03-20T15:18:45;94621.66;;;20.63;20.09
41078;BME280;26823;42.662;23.352;2023-03-20T15:21:14;94616.31;;;20.54;21.22
41078;BME280;26823;42.662;23.352;2023-03-20T15:23:44;94613.72;;;20.46;21.30
41078;BME280;26823;42.662;23.352;2023-03-20T15:26:12;94610.16;;;20.33;21.31
41078;BME280;26823;42.662;23.352;2023-03-20T15:28:38;94605.75;;;20.28;20.96